TKJ32N LTCG-LTAC
Flight info
| Callsign | TKJ32N |
|---|---|
| Flight time | 0h 40m |
| Altitude | 38000 |
| Route | TEMEL UW71 ILHAN |
| Aircraft | B738/M-SDE2E3FGHIRWXY/LB1 |
Departure
| Time | 2026-05-05 20:13 |
|---|---|
| Airport | Trabzon International Airport (LTCG) |
Arrival
| Time | 2026-05-05 20:53 |
|---|---|
| Airport | Esenboğa International Airport (LTAC) |
| Time | Latitude | Longitude | Altitude | Speed | Heading |
|---|---|---|---|---|---|
| 2026-05-05 19:57 | 40.99481 | 39.78373 | 114 ft | 0 kts | 202° |
| 2026-05-05 20:06 | 40.99493 | 39.78380 | 111 ft | 4 kts | 204° |
| 2026-05-05 20:06 | 40.99519 | 39.78392 | 112 ft | 4 kts | 197° |
| 2026-05-05 20:06 | 40.99543 | 39.78400 | 113 ft | 2 kts | 193° |
| 2026-05-05 20:07 | 40.99544 | 39.78401 | 114 ft | 2 kts | 193° |
| 2026-05-05 20:09 | 40.99541 | 39.78405 | 113 ft | 1 kts | 147° |
| 2026-05-05 20:09 | 40.99519 | 39.78442 | 112 ft | 10 kts | 126° |
| 2026-05-05 20:10 | 40.99492 | 39.78548 | 114 ft | 16 kts | 108° |
| 2026-05-05 20:10 | 40.99441 | 39.78715 | 111 ft | 22 kts | 112° |
| 2026-05-05 20:10 | 40.99381 | 39.78906 | 114 ft | 22 kts | 112° |
| 2026-05-05 20:10 | 40.99335 | 39.79117 | 101 ft | 25 kts | 76° |
| 2026-05-05 20:11 | 40.99388 | 39.79327 | 105 ft | 23 kts | 88° |
| 2026-05-05 20:11 | 40.99336 | 39.79524 | 107 ft | 22 kts | 112° |
| 2026-05-05 20:11 | 40.99150 | 39.80126 | 102 ft | 21 kts | 112° |
| 2026-05-05 20:11 | 40.99054 | 39.80280 | 103 ft | 21 kts | 139° |
| 2026-05-05 20:12 | 40.99037 | 39.80405 | 100 ft | 8 kts | 43° |
| 2026-05-05 20:12 | 40.99077 | 39.80380 | 101 ft | 5 kts | 285° |
| 2026-05-05 20:12 | 40.99108 | 39.80262 | 101 ft | 42 kts | 292° |
| 2026-05-05 20:12 | 40.99339 | 39.79521 | 106 ft | 129 kts | 292° |
| 2026-05-05 20:13 | 40.99758 | 39.78143 | 328 ft | 182 kts | 291° |
| 2026-05-05 20:13 | 41.00224 | 39.76483 | 1101 ft | 205 kts | 289° |
| 2026-05-05 20:13 | 41.00744 | 39.74657 | 1921 ft | 212 kts | 293° |
| 2026-05-05 20:13 | 41.01429 | 39.72846 | 2467 ft | 231 kts | 298° |
| 2026-05-05 20:14 | 41.02209 | 39.70949 | 3127 ft | 238 kts | 298° |
| 2026-05-05 20:14 | 41.03011 | 39.68923 | 3688 ft | 257 kts | 297° |
| 2026-05-05 20:14 | 41.03819 | 39.66778 | 4556 ft | 263 kts | 296° |
| 2026-05-05 20:14 | 41.04618 | 39.64586 | 5489 ft | 266 kts | 295° |
| 2026-05-05 20:15 | 41.05416 | 39.62363 | 6403 ft | 269 kts | 295° |
| 2026-05-05 20:15 | 41.06221 | 39.60102 | 7295 ft | 273 kts | 295° |
| 2026-05-05 20:15 | 41.06836 | 39.57717 | 8134 ft | 277 kts | 275° |
| 2026-05-05 20:15 | 41.06660 | 39.55176 | 9000 ft | 280 kts | 253° |
| 2026-05-05 20:16 | 41.06011 | 39.52766 | 9836 ft | 283 kts | 249° |
| 2026-05-05 20:16 | 41.05297 | 39.50307 | 10630 ft | 288 kts | 249° |
| 2026-05-05 20:16 | 41.04558 | 39.47816 | 11436 ft | 292 kts | 249° |
| 2026-05-05 20:16 | 41.03808 | 39.45297 | 12228 ft | 296 kts | 249° |
| 2026-05-05 20:17 | 41.03049 | 39.42736 | 13015 ft | 300 kts | 250° |
| 2026-05-05 20:17 | 41.02667 | 39.40028 | 13751 ft | 304 kts | 272° |
| 2026-05-05 20:17 | 41.02912 | 39.37229 | 14510 ft | 307 kts | 278° |
| 2026-05-05 20:17 | 41.03252 | 39.34427 | 15292 ft | 309 kts | 279° |
| 2026-05-05 20:18 | 41.03606 | 39.31598 | 16008 ft | 313 kts | 279° |
| 2026-05-05 20:18 | 41.03952 | 39.28775 | 16715 ft | 316 kts | 279° |
| 2026-05-05 20:18 | 41.04297 | 39.25881 | 17429 ft | 320 kts | 279° |
| 2026-05-05 20:18 | 41.04640 | 39.22955 | 18101 ft | 323 kts | 278° |
| 2026-05-05 20:19 | 41.04981 | 39.19999 | 18757 ft | 327 kts | 278° |
| 2026-05-05 20:19 | 41.05324 | 39.17002 | 19382 ft | 331 kts | 278° |
| 2026-05-05 20:19 | 41.05670 | 39.13975 | 20036 ft | 334 kts | 278° |
| 2026-05-05 20:19 | 41.05993 | 39.10878 | 20354 ft | 348 kts | 277° |
| 2026-05-05 20:20 | 41.06299 | 39.07608 | 20486 ft | 367 kts | 277° |
| 2026-05-05 20:20 | 41.06609 | 39.04177 | 20654 ft | 383 kts | 277° |
| 2026-05-05 20:20 | 41.06928 | 39.00641 | 21077 ft | 390 kts | 277° |
| 2026-05-05 20:20 | 41.07249 | 38.97110 | 21658 ft | 392 kts | 277° |
| 2026-05-05 20:21 | 41.07578 | 38.93517 | 22244 ft | 394 kts | 277° |
| 2026-05-05 20:21 | 41.07909 | 38.89899 | 22772 ft | 397 kts | 277° |
| 2026-05-05 20:21 | 41.08243 | 38.86254 | 23262 ft | 401 kts | 277° |
| 2026-05-05 20:21 | 41.08579 | 38.82572 | 23754 ft | 404 kts | 277° |
| 2026-05-05 20:22 | 41.08917 | 38.78865 | 24237 ft | 407 kts | 277° |
| 2026-05-05 20:22 | 41.09256 | 38.75129 | 24703 ft | 410 kts | 277° |
| 2026-05-05 20:22 | 41.09596 | 38.71369 | 25155 ft | 412 kts | 277° |
| 2026-05-05 20:22 | 41.09924 | 38.67632 | 25585 ft | 415 kts | 276° |
| 2026-05-05 20:23 | 41.10241 | 38.63812 | 26010 ft | 418 kts | 276° |
| 2026-05-05 20:23 | 41.10556 | 38.59965 | 26422 ft | 421 kts | 276° |
| 2026-05-05 20:23 | 41.10878 | 38.56099 | 26822 ft | 424 kts | 276° |
| 2026-05-05 20:23 | 41.11208 | 38.52205 | 27209 ft | 426 kts | 276° |
| 2026-05-05 20:24 | 41.11540 | 38.48290 | 27597 ft | 429 kts | 276° |
| 2026-05-05 20:24 | 41.11873 | 38.44351 | 27958 ft | 431 kts | 276° |
| 2026-05-05 20:24 | 41.12205 | 38.40391 | 28314 ft | 434 kts | 276° |
| 2026-05-05 20:24 | 41.12538 | 38.36404 | 28660 ft | 436 kts | 276° |
| 2026-05-05 20:25 | 41.12871 | 38.32399 | 28995 ft | 438 kts | 276° |
| 2026-05-05 20:25 | 41.13200 | 38.28426 | 29315 ft | 440 kts | 276° |
| 2026-05-05 20:25 | 41.13532 | 38.24374 | 29632 ft | 443 kts | 276° |
| 2026-05-05 20:25 | 41.13862 | 38.20306 | 29937 ft | 445 kts | 276° |
| 2026-05-05 20:26 | 41.14192 | 38.16218 | 30233 ft | 447 kts | 276° |
| 2026-05-05 20:26 | 41.14522 | 38.12105 | 30514 ft | 449 kts | 276° |
| 2026-05-05 20:26 | 41.14852 | 38.07983 | 30801 ft | 451 kts | 276° |
| 2026-05-05 20:26 | 41.15182 | 38.03842 | 31103 ft | 452 kts | 276° |
| 2026-05-05 20:27 | 41.15511 | 37.99698 | 31491 ft | 450 kts | 276° |
| 2026-05-05 20:27 | 41.15833 | 37.95633 | 31894 ft | 448 kts | 276° |
| 2026-05-05 20:27 | 41.16156 | 37.91522 | 32260 ft | 447 kts | 276° |
| 2026-05-05 20:27 | 41.16479 | 37.87416 | 32581 ft | 447 kts | 276° |
| 2026-05-05 20:28 | 41.16825 | 37.83316 | 32909 ft | 447 kts | 276° |
| 2026-05-05 20:28 | 41.17186 | 37.79220 | 33237 ft | 446 kts | 277° |
| 2026-05-05 20:28 | 41.17548 | 37.75132 | 33572 ft | 445 kts | 276° |
| 2026-05-05 20:28 | 41.17906 | 37.71057 | 33881 ft | 445 kts | 276° |
| 2026-05-05 20:29 | 41.18259 | 37.66979 | 34178 ft | 444 kts | 276° |
| 2026-05-05 20:29 | 41.18607 | 37.62906 | 34480 ft | 444 kts | 276° |
| 2026-05-05 20:29 | 41.18910 | 37.58836 | 34775 ft | 443 kts | 274° |
| 2026-05-05 20:29 | 41.19040 | 37.56130 | 34963 ft | 443 kts | 273° |
| 2026-05-05 20:30 | 41.19310 | 37.50734 | 35323 ft | 442 kts | 275° |
| 2026-05-05 20:30 | 41.19598 | 37.46673 | 35595 ft | 441 kts | 276° |
| 2026-05-05 20:30 | 41.19911 | 37.42624 | 35863 ft | 441 kts | 276° |
| 2026-05-05 20:30 | 41.20225 | 37.38577 | 36110 ft | 440 kts | 276° |
| 2026-05-05 20:31 | 41.20531 | 37.34534 | 36355 ft | 440 kts | 275° |
| 2026-05-05 20:31 | 41.20728 | 37.31858 | 36495 ft | 440 kts | 275° |
| 2026-05-05 20:31 | 41.21022 | 37.27805 | 36707 ft | 441 kts | 275° |
| 2026-05-05 20:31 | 41.21312 | 37.23754 | 36919 ft | 440 kts | 275° |
| 2026-05-05 20:32 | 41.21608 | 37.19709 | 37143 ft | 440 kts | 276° |
| 2026-05-05 20:32 | 41.21924 | 37.15664 | 37343 ft | 440 kts | 276° |
| 2026-05-05 20:32 | 41.22249 | 37.11620 | 37538 ft | 441 kts | 276° |
| 2026-05-05 20:32 | 41.22574 | 37.07572 | 37735 ft | 440 kts | 276° |
| 2026-05-05 20:33 | 41.22896 | 37.03526 | 37924 ft | 440 kts | 276° |
| 2026-05-05 20:33 | 41.23529 | 36.95450 | 37992 ft | 444 kts | 276° |
| 2026-05-05 20:34 | 41.24143 | 36.87493 | 37996 ft | 441 kts | 276° |
| 2026-05-05 20:34 | 41.24760 | 36.79423 | 37997 ft | 437 kts | 276° |
| 2026-05-05 20:35 | 41.25367 | 36.71405 | 38000 ft | 435 kts | 276° |
| 2026-05-05 20:35 | 41.25968 | 36.63418 | 38002 ft | 434 kts | 276° |
| 2026-05-05 20:36 | 41.26211 | 36.55482 | 37999 ft | 433 kts | 264° |
| 2026-05-05 20:36 | 41.24753 | 36.47741 | 38016 ft | 434 kts | 250° |
| 2026-05-05 20:37 | 41.22606 | 36.40221 | 38005 ft | 437 kts | 249° |
| 2026-05-05 20:37 | 41.20444 | 36.32649 | 38002 ft | 440 kts | 249° |
| 2026-05-05 20:38 | 41.18302 | 36.25011 | 38010 ft | 443 kts | 250° |
| 2026-05-05 20:38 | 41.16153 | 36.17309 | 38003 ft | 447 kts | 250° |
| 2026-05-05 20:39 | 41.14000 | 36.09613 | 38012 ft | 449 kts | 250° |
| 2026-05-05 20:39 | 41.11815 | 36.01829 | 38001 ft | 451 kts | 250° |
| 2026-05-05 20:40 | 41.09618 | 35.94030 | 37999 ft | 452 kts | 249° |
| 2026-05-05 20:40 | 41.07364 | 35.86213 | 37527 ft | 458 kts | 249° |
| 2026-05-05 20:40 | 41.06211 | 35.82303 | 37171 ft | 453 kts | 249° |
| 2026-05-05 20:41 | 41.05071 | 35.78435 | 36744 ft | 448 kts | 249° |
| 2026-05-05 20:41 | 41.03960 | 35.74655 | 36343 ft | 444 kts | 249° |
| 2026-05-05 20:41 | 41.02847 | 35.70866 | 35938 ft | 440 kts | 249° |
| 2026-05-05 20:41 | 41.01747 | 35.67110 | 35527 ft | 436 kts | 249° |
| 2026-05-05 20:42 | 41.00671 | 35.63378 | 35104 ft | 432 kts | 249° |
| 2026-05-05 20:42 | 40.99609 | 35.59671 | 34689 ft | 429 kts | 249° |
| 2026-05-05 20:42 | 40.98556 | 35.55994 | 34277 ft | 425 kts | 249° |
| 2026-05-05 20:42 | 40.97510 | 35.52353 | 33869 ft | 422 kts | 249° |
| 2026-05-05 20:43 | 40.96467 | 35.48739 | 33466 ft | 419 kts | 249° |
| 2026-05-05 20:43 | 40.95444 | 35.45201 | 33076 ft | 416 kts | 249° |
| 2026-05-05 20:43 | 40.94415 | 35.41642 | 32670 ft | 413 kts | 249° |
| 2026-05-05 20:43 | 40.93392 | 35.38108 | 32280 ft | 410 kts | 249° |
| 2026-05-05 20:44 | 40.92375 | 35.34596 | 31887 ft | 407 kts | 249° |
| 2026-05-05 20:44 | 40.91365 | 35.31112 | 31501 ft | 404 kts | 249° |
| 2026-05-05 20:44 | 40.90361 | 35.27651 | 31116 ft | 402 kts | 249° |
| 2026-05-05 20:44 | 40.89365 | 35.24221 | 30742 ft | 399 kts | 249° |
| 2026-05-05 20:45 | 40.87402 | 35.17475 | 29989 ft | 393 kts | 249° |
| 2026-05-05 20:45 | 40.86423 | 35.14117 | 29607 ft | 390 kts | 249° |
| 2026-05-05 20:45 | 40.85449 | 35.10782 | 29224 ft | 387 kts | 249° |
| 2026-05-05 20:46 | 40.84483 | 35.07477 | 28841 ft | 384 kts | 249° |
| 2026-05-05 20:46 | 40.83523 | 35.04198 | 28461 ft | 382 kts | 249° |
| 2026-05-05 20:46 | 40.82568 | 35.00940 | 28079 ft | 379 kts | 249° |
| 2026-05-05 20:46 | 40.81619 | 34.97707 | 27697 ft | 376 kts | 249° |
| 2026-05-05 20:47 | 40.78663 | 34.87652 | 26513 ft | 368 kts | 249° |
| 2026-05-05 20:47 | 40.71495 | 34.63459 | 23583 ft | 351 kts | 249° |
| 2026-05-05 20:47 | 40.64475 | 34.40286 | 20887 ft | 332 kts | 248° |
| 2026-05-05 20:47 | 40.57755 | 34.18252 | 18214 ft | 317 kts | 248° |
| 2026-05-05 20:48 | 40.51286 | 33.97166 | 15617 ft | 304 kts | 248° |
| 2026-05-05 20:48 | 40.45500 | 33.76784 | 13112 ft | 292 kts | 251° |
| 2026-05-05 20:48 | 40.40369 | 33.56971 | 10652 ft | 281 kts | 251° |
| 2026-05-05 20:48 | 40.35236 | 33.38274 | 8507 ft | 265 kts | 250° |
| 2026-05-05 20:49 | 40.33747 | 33.32898 | 7873 ft | 261 kts | 250° |
| 2026-05-05 20:49 | 40.31117 | 33.23318 | 7333 ft | 227 kts | 250° |
| 2026-05-05 20:49 | 40.29917 | 33.18964 | 7042 ft | 218 kts | 250° |
| 2026-05-05 20:49 | 40.27963 | 33.16061 | 6623 ft | 214 kts | 214° |
| 2026-05-05 20:50 | 40.25603 | 33.13835 | 6105 ft | 204 kts | 217° |
| 2026-05-05 20:50 | 40.23408 | 33.11734 | 5678 ft | 183 kts | 217° |
| 2026-05-05 20:50 | 40.21454 | 33.09866 | 5186 ft | 167 kts | 217° |
| 2026-05-05 20:50 | 40.19649 | 33.08141 | 4912 ft | 154 kts | 217° |
| 2026-05-05 20:51 | 40.17895 | 33.06467 | 4433 ft | 157 kts | 217° |
| 2026-05-05 20:51 | 40.16988 | 33.05601 | 4195 ft | 152 kts | 217° |
| 2026-05-05 20:51 | 40.16153 | 33.04806 | 3997 ft | 150 kts | 217° |
| 2026-05-05 20:51 | 40.15305 | 33.03998 | 3804 ft | 151 kts | 217° |
| 2026-05-05 20:52 | 40.14454 | 33.03187 | 3585 ft | 151 kts | 216° |
| 2026-05-05 20:52 | 40.13618 | 33.02391 | 3413 ft | 143 kts | 217° |
| 2026-05-05 20:52 | 40.12844 | 33.01646 | 3208 ft | 135 kts | 217° |
| 2026-05-05 20:52 | 40.12104 | 33.00932 | 3151 ft | 124 kts | 214° |
| 2026-05-05 20:53 | 40.11503 | 33.00372 | 3134 ft | 87 kts | 216° |
| 2026-05-05 20:53 | 40.11106 | 32.99994 | 3123 ft | 56 kts | 216° |
| 2026-05-05 20:53 | 40.10943 | 32.99707 | 3119 ft | 13 kts | 250° |
| 2026-05-05 20:53 | 40.10915 | 32.99597 | 3117 ft | 9 kts | 259° |
| 2026-05-05 20:54 | 40.10916 | 32.99575 | 3117 ft | 0 kts | 284° |
| 2026-05-05 20:54 | 40.10917 | 32.99574 | 3117 ft | 1 kts | 288° |
| 2026-05-05 20:54 | 40.10929 | 32.99544 | 3117 ft | 5 kts | 311° |
| 2026-05-05 20:54 | 40.10956 | 32.99547 | 3117 ft | 4 kts | 42° |
| 2026-05-05 20:55 | 40.10981 | 32.99568 | 3118 ft | 4 kts | 31° |
| 2026-05-05 20:55 | 40.11023 | 32.99605 | 3119 ft | 12 kts | 36° |
| 2026-05-05 20:55 | 40.11116 | 32.99694 | 3121 ft | 21 kts | 36° |
| 2026-05-05 20:55 | 40.11249 | 32.99822 | 3120 ft | 21 kts | 36° |
| 2026-05-05 20:56 | 40.11562 | 33.00118 | 3132 ft | 19 kts | 27° |
| 2026-05-05 20:56 | 40.11652 | 33.00034 | 3124 ft | 14 kts | 306° |
| 2026-05-05 20:56 | 40.11726 | 32.99902 | 3120 ft | 17 kts | 306° |
| 2026-05-05 20:56 | 40.11801 | 32.99762 | 3112 ft | 20 kts | 294° |
| 2026-05-05 20:57 | 40.11795 | 32.99693 | 3112 ft | 7 kts | 256° |
| 2026-05-05 20:57 | 40.11787 | 32.99632 | 3112 ft | 7 kts | 268° |
| 2026-05-05 20:57 | 40.11785 | 32.99569 | 3112 ft | 7 kts | 268° |
| 2026-05-05 20:57 | 40.11776 | 32.99451 | 3112 ft | 6 kts | 260° |
| 2026-05-05 20:58 | 40.11756 | 32.99339 | 3112 ft | 6 kts | 254° |
| 2026-05-05 20:58 | 40.11724 | 32.99221 | 3112 ft | 11 kts | 246° |
| 2026-05-05 20:58 | 40.11688 | 32.99132 | 3112 ft | 11 kts | 240° |
| 2026-05-05 20:58 | 40.11651 | 32.99056 | 3112 ft | 6 kts | 233° |
| 2026-05-05 20:59 | 40.11613 | 32.99049 | 3112 ft | 6 kts | 152° |
| 2026-05-05 20:59 | 40.11583 | 32.99078 | 3112 ft | 4 kts | 143° |
| 2026-05-05 20:59 | 40.11580 | 32.99081 | 3112 ft | 1 kts | 143° |
| 2026-05-05 20:59 | 40.11578 | 32.99082 | 3112 ft | 0 kts | 143° |